Time;durP1;ratioP1;P1;durP2;ratioP2;P2;SDS_P1;SDS_P2;PMS_P1;PMS_P2;Temp;Humidity;BMP_temperature;BMP_pressure;BME280_temperature;BME280_humidity;BME280_pressure;Samples;Min_cycle;Max_cycle;Signal;HPM_P1;HPM_P2
2023/01/11 00:03:14;;;;;;;4.85;0.57;;;;;;;6.77;92.69;100506.78;5060657;28;20414;-74
2023/01/11 00:06:21;;;;;;;1.42;0.22;;;;;;;6.69;92.74;100499.22;5072800;28;20051;-74
2023/01/11 00:09:46;;;;;;;3.60;0.47;;;;;;;6.72;92.57;100496.53;5072768;28;20055;-74
2023/01/11 00:13:13;;;;;;;1.80;0.30;;;;;;;6.75;91.28;100493.81;5072839;28;20055;-74
2023/01/11 00:16:39;;;;;;;3.55;0.55;;;;;;;6.84;91.90;100497.00;5072620;28;20043;-74
2023/01/11 00:20:02;;;;;;;5.15;0.60;;;;;;;6.83;91.86;100496.16;5072796;28;20067;-75
2023/01/11 00:23:22;;;;;;;2.08;0.45;;;;;;;6.87;92.11;100487.31;5072576;28;20106;-74
2023/01/11 00:26:53;;;;;;;1.65;0.40;;;;;;;6.97;91.89;100475.66;5072499;28;20047;-75
2023/01/11 00:30:34;;;;;;;2.55;0.52;;;;;;;6.96;91.70;100475.75;5072357;28;20051;-75
2023/01/11 00:33:57;;;;;;;3.78;1.92;;;;;;;6.78;92.70;100481.63;5072348;28;20079;-74
2023/01/11 00:37:34;;;;;;;1.55;0.55;;;;;;;6.69;92.88;100481.03;5072633;28;20043;-74
2023/01/11 00:40:55;;;;;;;2.20;0.60;;;;;;;6.94;91.98;100482.75;5072239;28;20051;-74
2023/01/11 00:48:09;;;;;;;3.97;0.70;;;;;;;7.07;92.02;100467.53;5071923;28;20071;-74
2023/01/11 00:51:19;;;;;;;2.70;0.73;;;;;;;7.07;91.67;100457.97;5071900;28;20182;-74
2023/01/11 00:54:26;;;;;;;2.17;0.60;;;;;;;6.91;93.12;100456.84;5072110;28;20089;-74
2023/01/11 00:57:45;;;;;;;1.83;0.50;;;;;;;6.99;92.90;100458.28;5072168;28;20509;-74
2023/01/11 01:01:06;;;;;;;3.42;0.40;;;;;;;7.05;92.90;100452.00;5067481;28;20132;-74
2023/01/11 01:04:27;;;;;;;1.90;0.47;;;;;;;7.09;92.62;100450.13;5070345;28;20192;-74
2023/01/11 01:07:43;;;;;;;2.20;0.60;;;;;;;6.90;93.35;100452.56;5071731;28;20079;-74
2023/01/11 01:10:56;;;;;;;5.75;0.60;;;;;;;6.88;93.94;100452.63;5059544;28;20075;-75
2023/01/11 01:14:32;;;;;;;1.42;0.60;;;;;;;7.03;93.14;100450.34;5071842;28;20051;-75
2023/01/11 01:18:00;;;;;;;3.72;0.38;;;;;;;7.02;93.66;100444.31;5071581;28;20099;-75
2023/01/11 01:21:15;;;;;;;2.15;0.55;;;;;;;7.05;93.53;100433.78;5071631;28;20047;-75
2023/01/11 01:24:36;;;;;;;2.45;0.52;;;;;;;7.00;94.22;100430.50;5070210;28;20043;-76
2023/01/11 01:27:53;;;;;;;2.90;0.70;;;;;;;7.12;93.77;100430.03;5070868;28;20058;-76
2023/01/11 01:31:02;;;;;;;2.65;0.57;;;;;;;7.10;93.93;100437.03;5071071;28;20094;-76
2023/01/11 01:34:22;;;;;;;2.30;0.50;;;;;;;7.09;94.28;100434.50;5059238;28;20086;-76
2023/01/11 01:37:43;;;;;;;3.47;0.73;;;;;;;6.90;94.62;100450.81;5071006;28;20047;-76
2023/01/11 01:41:02;;;;;;;3.50;0.70;;;;;;;6.97;95.32;100446.22;5071499;28;20067;-76
2023/01/11 01:44:54;;;;;;;2.22;0.43;;;;;;;7.01;95.09;100437.41;5071519;28;20189;-76
2023/01/11 01:48:26;;;;;;;7.10;0.60;;;;;;;7.12;94.51;100445.63;5058936;28;20047;-76
2023/01/11 01:52:00;;;;;;;4.40;0.60;;;;;;;7.15;94.55;100442.91;5053058;28;20113;-76
2023/01/11 01:55:26;;;;;;;2.90;0.88;;;;;;;7.09;95.05;100435.34;5070002;28;20051;-76
2023/01/11 01:58:59;;;;;;;4.40;0.60;;;;;;;7.18;95.03;100437.59;5071118;28;20094;-75
2023/01/11 02:02:31;;;;;;;4.15;0.60;;;;;;;6.94;96.59;100425.56;5071326;28;20109;-75
2023/01/11 02:06:00;;;;;;;2.78;0.40;;;;;;;7.07;95.78;100426.75;5071266;28;20135;-75
2023/01/11 02:09:57;;;;;;;2.53;0.55;;;;;;;7.20;94.77;100427.97;5071238;28;20093;-75
2023/01/11 02:13:18;;;;;;;2.70;0.50;;;;;;;7.30;94.85;100412.84;5071326;28;20047;-75
2023/01/11 02:16:55;;;;;;;4.40;0.70;;;;;;;7.14;95.35;100406.56;5073666;28;20055;-75
2023/01/11 02:20:40;;;;;;;3.00;0.57;;;;;;;7.13;95.21;100408.31;5075143;28;20048;-75
2023/01/11 02:24:22;;;;;;;4.10;0.60;;;;;;;7.03;96.20;100406.16;5074871;28;20043;-75
2023/01/11 02:28:05;;;;;;;2.13;0.43;;;;;;;7.22;95.14;100389.75;5074937;28;20067;-74
2023/01/11 02:32:00;;;;;;;1.90;0.30;;;;;;;7.23;95.15;100378.44;5063637;28;20110;-74
2023/01/11 02:35:35;;;;;;;2.38;0.45;;;;;;;7.21;95.92;100363.78;5074795;28;20316;-74
2023/01/11 02:39:31;;;;;;;1.70;0.45;;;;;;;7.19;96.13;100363.88;5074568;28;20078;-74
2023/01/11 02:47:00;;;;;;;2.47;0.57;;;;;;;7.03;97.14;100365.41;5074332;28;20098;-74
2023/01/11 02:50:07;;;;;;;3.67;0.55;;;;;;;7.05;98.14;100345.41;5074529;28;20055;-74
2023/01/11 02:53:47;;;;;;;3.53;0.73;;;;;;;7.12;97.79;100340.78;5074547;28;20048;-74
2023/01/11 02:57:07;;;;;;;1.67;0.50;;;;;;;7.18;97.39;100346.59;5074329;28;20044;-75
2023/01/11 03:00:22;;;;;;;3.03;1.48;;;;;;;7.31;96.88;100340.88;5074042;28;20161;-75
2023/01/11 03:03:52;;;;;;;1.83;0.50;;;;;;;7.23;97.51;100326.41;5074192;28;20090;-75
2023/01/11 03:07:38;;;;;;;1.67;0.30;;;;;;;7.31;97.30;100326.13;5074148;28;20546;-74
2023/01/11 03:11:13;;;;;;;2.28;0.40;;;;;;;7.16;97.18;100321.56;5074178;28;20063;-75
2023/01/11 03:14:51;;;;;;;1.17;0.30;;;;;;;7.42;95.83;100323.06;5061630;28;20051;-75
2023/01/11 03:18:38;;;;;;;2.08;0.40;;;;;;;7.52;96.19;100326.09;5053571;28;20465;-74
2023/01/11 03:22:16;;;;;;;2.88;0.65;;;;;;;7.36;96.57;100324.16;5050139;28;20537;-75
2023/01/11 03:25:37;;;;;;;3.55;0.45;;;;;;;7.46;96.48;100324.59;5053869;28;20048;-74
2023/01/11 03:29:13;;;;;;;0.88;0.25;;;;;;;7.49;95.57;100314.06;5048549;28;20438;-74
2023/01/11 03:32:54;;;;;;;1.33;0.40;;;;;;;7.46;95.79;100302.03;5042298;28;20469;-74
2023/01/11 03:36:26;;;;;;;1.10;0.40;;;;;;;7.58;95.46;100298.06;5053581;28;20052;-74
2023/01/11 03:39:54;;;;;;;1.90;0.38;;;;;;;7.64;94.42;100295.19;5042616;28;20122;-74
2023/01/11 03:43:19;;;;;;;1.40;0.32;;;;;;;7.63;96.07;100298.72;5047345;28;20052;-74
2023/01/11 03:46:53;;;;;;;1.60;0.40;;;;;;;7.65;95.28;100283.88;5053372;28;20055;-74
2023/01/11 03:50:14;;;;;;;1.58;0.30;;;;;;;7.58;96.30;100279.00;5042391;28;20118;-74
2023/01/11 03:53:30;;;;;;;2.22;0.45;;;;;;;7.64;95.28;100282.19;5053197;28;20048;-74
2023/01/11 03:57:14;;;;;;;2.42;0.50;;;;;;;7.80;94.03;100271.09;5053272;28;20086;-74
2023/01/11 04:00:34;;;;;;;3.95;0.50;;;;;;;7.89;94.17;100270.69;5053052;28;20068;-74
2023/01/11 04:03:55;;;;;;;2.42;0.40;;;;;;;7.88;94.42;100261.16;5053111;28;20071;-74
2023/01/11 04:07:24;;;;;;;1.30;0.40;;;;;;;7.83;94.06;100271.81;5051241;28;20084;-74
2023/01/11 04:10:46;;;;;;;2.70;0.55;;;;;;;7.83;94.50;100277.00;5053260;28;20052;-74
2023/01/11 04:14:11;;;;;;;2.53;0.40;;;;;;;7.89;93.84;100266.31;5053083;28;20107;-76
2023/01/11 04:17:40;;;;;;;2.00;0.40;;;;;;;7.95;94.14;100270.41;5052633;28;20068;-79
2023/01/11 04:21:17;;;;;;;1.17;0.40;;;;;;;7.94;93.88;100273.91;5052801;28;20056;-78
2023/01/11 04:24:42;;;;;;;4.53;1.05;;;;;;;7.96;93.96;100259.06;5032679;28;20056;-78
2023/01/11 04:28:12;;;;;;;1.90;0.43;;;;;;;8.03;93.38;100255.28;5052799;28;20048;-77
2023/01/11 04:31:36;;;;;;;3.30;0.45;;;;;;;8.10;93.87;100251.50;5052616;28;20044;-78
2023/01/11 04:34:53;;;;;;;3.15;0.50;;;;;;;8.08;93.20;100250.72;5052661;28;20059;-80
2023/01/11 04:38:11;;;;;;;1.70;0.35;;;;;;;8.10;93.33;100248.03;5052518;28;20446;-79
2023/01/11 04:45:10;;;;;;;2.15;0.40;;;;;;;8.24;92.54;100224.78;5052309;28;20076;-77
2023/01/11 04:48:34;;;;;;;1.42;0.30;;;;;;;8.30;91.87;100234.09;5052411;28;20142;-78
2023/01/11 04:51:39;;;;;;;1.23;0.30;;;;;;;8.38;91.97;100221.56;5052283;28;20040;-78
2023/01/11 04:54:52;;;;;;;1.23;0.20;;;;;;;8.41;91.86;100231.81;5052166;28;20059;-78
2023/01/11 04:57:57;;;;;;;1.13;0.25;;;;;;;8.41;91.36;100220.56;5053243;28;20521;-70
2023/01/11 05:01:24;;;;;;;0.85;0.25;;;;;;;8.46;90.98;100222.03;5040008;28;20090;-80
2023/01/11 05:04:58;;;;;;;1.42;0.45;;;;;;;8.49;90.93;100208.88;5052151;28;20125;-78
2023/01/11 05:08:24;;;;;;;1.52;0.35;;;;;;;8.49;91.65;100214.06;5052066;28;20517;-76
2023/01/11 05:11:36;;;;;;;2.38;0.30;;;;;;;8.51;91.72;100212.22;5051929;28;20102;-78
2023/01/11 05:14:57;;;;;;;1.55;0.30;;;;;;;8.52;90.94;100203.50;5051942;28;20473;-75
2023/01/11 05:18:28;;;;;;;1.15;0.20;;;;;;;8.61;90.64;100197.84;5052101;28;20122;-75
2023/01/11 05:21:55;;;;;;;2.08;0.60;;;;;;;8.61;92.16;100202.19;5039431;28;20513;-78
2023/01/11 05:25:04;;;;;;;2.13;0.50;;;;;;;8.49;92.05;100206.25;5051606;28;20456;-75
2023/01/11 05:28:09;;;;;;;0.63;0.20;;;;;;;8.61;91.05;100208.28;5051702;28;20044;-75
2023/01/11 05:31:15;;;;;;;1.98;0.22;;;;;;;8.72;90.46;100209.50;5051757;28;20126;-76
2023/01/11 05:34:31;;;;;;;2.50;0.85;;;;;;;8.69;91.73;100202.66;5051700;28;20128;-76
2023/01/11 05:37:41;;;;;;;3.38;0.80;;;;;;;8.49;94.00;100200.22;5039723;28;20171;-78
2023/01/11 05:41:07;;;;;;;3.03;0.65;;;;;;;8.60;93.78;100200.50;5051402;28;20136;-74
2023/01/11 05:48:03;;;;;;;2.10;0.50;;;;;;;8.61;94.63;100197.84;5049121;28;20056;-72
2023/01/11 05:51:17;;;;;;;2.83;0.40;;;;;;;8.38;97.03;100200.72;5040388;28;20044;-72
2023/01/11 05:54:36;;;;;;;3.55;1.10;;;;;;;8.45;96.97;100196.88;5051259;28;20067;-73
2023/01/11 05:57:44;;;;;;;3.88;0.70;;;;;;;8.37;97.58;100185.97;5050386;28;20053;-72
2023/01/11 06:00:57;;;;;;;3.90;0.60;;;;;;;8.35;97.84;100191.25;5037633;28;20460;-72
2023/01/11 06:04:07;;;;;;;2.00;0.52;;;;;;;8.34;98.38;100183.50;5030602;28;20107;-72
2023/01/11 06:07:24;;;;;;;1.65;0.50;;;;;;;8.35;96.76;100177.38;5029585;28;20061;-73
2023/01/11 06:10:34;;;;;;;2.40;0.70;;;;;;;8.46;96.29;100174.31;5031032;28;20525;-73
2023/01/11 06:13:42;;;;;;;8.00;6.60;;;;;;;8.46;97.67;100167.31;5030964;28;20087;-73
2023/01/11 06:16:46;;;;;;;6.03;3.60;;;;;;;8.45;97.83;100167.38;5018164;28;20104;-73
2023/01/11 06:19:50;;;;;;;6.13;2.33;;;;;;;8.38;98.44;100166.84;5050240;28;20126;-73
2023/01/11 06:22:57;;;;;;;3.90;1.80;;;;;;;8.34;98.97;100168.72;5049909;28;20128;-73
2023/01/11 06:26:07;;;;;;;2.55;0.88;;;;;;;8.37;98.60;100165.13;5052321;28;20070;-73
2023/01/11 06:29:27;;;;;;;5.82;3.85;;;;;;;8.48;97.84;100170.69;5051000;28;20107;-72
2023/01/11 06:33:07;;;;;;;3.45;1.98;;;;;;;8.48;98.30;100168.06;5048642;28;20060;-73
2023/01/11 06:37:03;;;;;;;3.65;2.13;;;;;;;8.47;98.06;100160.34;5052471;28;20071;-73
2023/01/11 06:40:11;;;;;;;2.20;0.90;;;;;;;8.44;98.11;100169.16;5049282;28;20594;-73
2023/01/11 06:43:26;;;;;;;2.30;0.82;;;;;;;8.47;98.06;100166.41;5068166;28;20047;-73
2023/01/11 06:46:43;;;;;;;2.90;0.40;;;;;;;8.56;97.72;100163.34;5068840;28;20109;-73
2023/01/11 06:49:49;;;;;;;2.88;0.50;;;;;;;8.56;98.11;100157.28;5068799;28;20047;-73
2023/01/11 06:53:00;;;;;;;3.22;0.60;;;;;;;8.36;99.32;100145.22;5069328;28;20067;-73
2023/01/11 06:56:07;;;;;;;1.45;0.30;;;;;;;8.42;98.26;100144.91;5069829;28;20040;-73
2023/01/11 06:59:24;;;;;;;1.67;0.50;;;;;;;8.61;98.36;100139.63;5068314;28;20402;-73
2023/01/11 07:02:45;;;;;;;4.10;0.50;;;;;;;8.71;97.39;100134.81;5066936;28;20512;-74
2023/01/11 07:05:58;;;;;;;0.98;0.38;;;;;;;8.56;97.56;100141.66;5056431;28;20129;-73
2023/01/11 07:09:07;;;;;;;1.38;0.45;;;;;;;8.68;96.40;100137.56;5069480;28;20059;-73
2023/01/11 07:12:29;;;;;;;0.82;0.25;;;;;;;8.70;95.98;100136.56;5069873;28;20128;-73
2023/01/11 07:15:39;;;;;;;6.65;0.60;;;;;;;8.78;95.49;100146.63;5069296;28;20079;-73
2023/01/11 07:18:42;;;;;;;1.52;0.30;;;;;;;8.84;95.09;100151.53;5048908;28;20052;-73
2023/01/11 07:21:51;;;;;;;1.13;0.28;;;;;;;8.75;96.94;100155.44;5036142;28;20434;-73
2023/01/11 07:25:00;;;;;;;;;;;;;;;8.72;97.54;100152.16;5048307;28;20101;-73
2023/01/11 07:28:20;;;;;;;4.93;0.43;;;;;;;8.82;97.19;100153.38;5049105;28;19971;-73
2023/01/11 07:31:31;;;;;;;4.70;0.95;;;;;;;8.75;97.83;100167.63;5049222;28;20075;-73
2023/01/11 07:34:47;;;;;;;1.42;0.40;;;;;;;8.76;97.94;100156.28;5048886;28;20597;-73
2023/01/11 07:38:13;;;;;;;1.10;0.32;;;;;;;8.75;98.56;100165.03;5049617;28;20094;-73
2023/01/11 07:44:52;;;;;;;0.90;0.35;;;;;;;8.81;97.91;100162.94;5045415;28;20148;-73
2023/01/11 07:48:02;;;;;;;1.75;0.22;;;;;;;8.70;99.16;100159.19;5044818;28;20044;-73
2023/01/11 07:51:12;;;;;;;2.38;0.85;;;;;;;8.74;98.73;100163.31;5055581;28;20134;-73
2023/01/11 07:54:24;;;;;;;2.03;0.93;;;;;;;8.75;99.15;100170.25;5068908;28;20051;-73
2023/01/11 07:57:30;;;;;;;1.77;0.40;;;;;;;8.77;98.88;100168.38;5058220;28;20050;-73
2023/01/11 08:00:34;;;;;;;4.70;0.57;;;;;;;8.79;99.29;100163.94;5060651;28;20043;-73
2023/01/11 08:03:38;;;;;;;2.00;0.90;;;;;;;8.82;99.45;100169.00;5058042;28;20106;-73
2023/01/11 08:06:41;;;;;;;1.55;0.45;;;;;;;8.71;99.81;100156.53;5027882;28;20056;-73
2023/01/11 08:09:47;;;;;;;2.00;0.50;;;;;;;8.87;99.24;100159.19;5030985;28;20107;-73
2023/01/11 08:16:36;;;;;;;2.08;0.70;;;;;;;8.89;99.85;100154.72;5033749;28;20585;-73
2023/01/11 08:19:58;;;;;;;1.10;0.22;;;;;;;8.82;98.90;100149.00;5047377;28;20508;-73
2023/01/11 08:23:16;;;;;;;2.17;0.40;;;;;;;8.87;99.34;100155.72;5052586;28;20449;-73
2023/01/11 08:26:47;;;;;;;2.30;1.02;;;;;;;8.82;99.98;100164.63;5052091;28;20056;-73
2023/01/11 08:30:22;;;;;;;1.23;0.40;;;;;;;8.81;100.00;100170.78;5052208;28;20466;-73
2023/01/11 08:33:49;;;;;;;1.77;0.30;;;;;;;8.80;99.98;100166.47;5051999;28;20040;-73
2023/01/11 08:37:13;;;;;;;4.00;0.70;;;;;;;8.89;99.22;100175.59;5052396;28;20044;-73
2023/01/11 08:40:44;;;;;;;2.92;1.10;;;;;;;8.96;99.50;100176.13;5064728;28;20047;-73
2023/01/11 08:43:52;;;;;;;2.97;1.00;;;;;;;9.05;98.42;100175.66;5072080;28;20410;-73
2023/01/11 08:47:07;;;;;;;2.15;0.70;;;;;;;8.87;99.22;100177.44;5071726;28;20048;-73
2023/01/11 08:50:15;;;;;;;4.35;1.10;;;;;;;8.84;99.46;100177.59;5071369;28;20051;-73
2023/01/11 08:53:36;;;;;;;4.60;2.03;;;;;;;8.83;100.00;100181.94;5071892;28;20421;-73
2023/01/11 08:56:52;;;;;;;4.10;2.03;;;;;;;8.90;100.00;100176.44;5078684;28;20091;-73
2023/01/11 09:00:29;;;;;;;4.95;2.40;;;;;;;8.93;99.86;100174.50;5090702;28;20059;-73
2023/01/11 09:03:49;;;;;;;2.58;0.60;;;;;;;8.91;100.00;100188.56;5091932;28;20073;-73
2023/01/11 09:07:11;;;;;;;3.42;0.98;;;;;;;9.05;99.63;100192.13;5091716;28;20067;-73
2023/01/11 09:10:25;;;;;;;3.78;1.52;;;;;;;9.01;99.71;100200.22;5091999;28;20063;-73
2023/01/11 09:13:54;;;;;;;4.40;2.10;;;;;;;9.00;99.66;100201.13;5091773;28;20074;-73
2023/01/11 09:17:13;;;;;;;3.78;1.38;;;;;;;9.20;98.56;100203.56;5091328;28;20054;-73
2023/01/11 09:20:52;;;;;;;4.40;1.27;;;;;;;9.28;97.88;100192.72;5091510;28;20144;-73
2023/01/11 09:24:18;;;;;;;1.90;0.90;;;;;;;9.00;100.00;100191.53;5091658;28;20047;-73
2023/01/11 09:27:29;;;;;;;15.63;2.15;;;;;;;9.03;100.00;100199.22;5091293;28;20119;-73
2023/01/11 09:30:56;;;;;;;61.33;8.85;;;;;;;9.13;100.00;100202.19;5091464;28;20043;-73
2023/01/11 09:34:16;;;;;;;10.73;4.00;;;;;;;9.20;99.91;100215.75;5088453;28;20089;-73
2023/01/11 09:37:44;;;;;;;11.73;7.90;;;;;;;9.04;100.00;100215.69;5089993;28;20193;-73
2023/01/11 09:41:39;;;;;;;5.78;1.77;;;;;;;9.14;100.00;100236.94;5075005;28;20413;-73
2023/01/11 09:45:04;;;;;;;3.47;1.73;;;;;;;9.10;100.00;100249.28;5071270;28;20469;-73
2023/01/11 09:48:27;;;;;;;10.07;8.10;;;;;;;9.13;100.00;100248.31;5070917;28;20047;-73
2023/01/11 09:51:38;;;;;;;6.53;3.53;;;;;;;9.16;100.00;100251.59;5071132;28;20116;-73
2023/01/11 09:54:57;;;;;;;4.55;3.65;;;;;;;9.08;100.00;100264.16;5071390;28;20163;-73
2023/01/11 09:58:31;;;;;;;5.30;2.78;;;;;;;9.14;99.88;100268.25;5070173;28;20052;-73
2023/01/11 10:06:07;;;;;;;5.32;2.67;;;;;;;9.21;100.00;100264.41;5049430;28;20524;-73
2023/01/11 10:09:20;;;;;;;6.53;4.10;;;;;;;9.17;100.00;100271.53;5038950;28;20048;-73
2023/01/11 10:13:13;;;;;;;7.15;4.55;;;;;;;9.34;100.00;100270.66;5065996;28;20459;-73
2023/01/11 10:16:49;;;;;;;3.03;1.30;;;;;;;9.42;100.00;100271.13;5059978;28;20051;-73
2023/01/11 10:20:33;;;;;;;6.03;2.80;;;;;;;9.48;100.00;100255.16;4729812;28;10000604;-74
2023/01/11 10:24:17;;;;;;;5.90;2.92;;;;;;;9.58;100.00;100242.47;5060218;28;20505;-73
2023/01/11 10:27:34;;;;;;;2.92;1.30;;;;;;;9.76;100.00;100245.84;5052981;28;20052;-73
2023/01/11 10:38:06;;;;;;;3.88;0.82;;;;;;;9.86;100.00;100240.97;5065893;28;20043;-73
2023/01/11 10:41:24;;;;;;;4.00;1.60;;;;;;;9.93;100.00;100250.19;5046571;28;20059;-74
2023/01/11 10:44:56;;;;;;;1.65;0.73;;;;;;;9.97;100.00;100260.38;5089035;28;20051;-73
2023/01/11 10:48:22;;;;;;;3.50;2.10;;;;;;;9.97;100.00;100264.78;5048965;28;20099;-74
2023/01/11 10:51:48;;;;;;;4.55;2.90;;;;;;;9.86;100.00;100260.13;5050547;28;20060;-73
2023/01/11 10:54:59;;;;;;;7.55;3.28;;;;;;;9.91;100.00;100250.25;5068636;28;20071;-73
2023/01/11 10:58:24;;;;;;;5.75;4.15;;;;;;;10.04;99.90;100239.16;5068763;28;20177;-74
2023/01/11 11:01:49;;;;;;;4.43;3.65;;;;;;;10.04;99.63;100237.38;5061992;28;20413;-74
2023/01/11 11:05:25;;;;;;;7.35;4.20;;;;;;;9.75;100.00;100258.06;5068320;28;20074;-74
2023/01/11 11:09:04;;;;;;;10.50;8.02;;;;;;;9.60;100.00;100258.88;5055824;28;20099;-74
2023/01/11 11:12:34;;;;;;;9.68;5.57;;;;;;;9.82;100.00;100255.97;5031695;28;20056;-74
2023/01/11 11:16:04;;;;;;;12.43;7.68;;;;;;;9.99;100.00;100257.72;5056601;28;20144;-74
2023/01/11 11:19:24;;;;;;;10.63;7.45;;;;;;;10.05;100.00;100246.94;5069554;28;20175;-74
2023/01/11 11:22:50;;;;;;;8.35;4.28;;;;;;;10.16;100.00;100238.50;5068952;28;20043;-73
2023/01/11 11:26:09;;;;;;;5.75;3.20;;;;;;;10.16;100.00;100249.78;5069268;28;20055;-73
2023/01/11 11:29:29;;;;;;;18.10;8.05;;;;;;;10.11;100.00;100254.41;5068568;28;20052;-74
2023/01/11 11:32:37;;;;;;;7.88;4.25;;;;;;;10.08;100.00;100246.72;5055987;28;20557;-74
2023/01/11 11:35:57;;;;;;;4.75;2.47;;;;;;;10.14;100.00;100248.16;5068531;28;20283;-74
2023/01/11 11:39:29;;;;;;;3.83;1.33;;;;;;;10.07;100.00;100249.44;4706567;28;9999790;-73
2023/01/11 11:42:44;;;;;;;3.15;1.10;;;;;;;9.87;100.00;100253.97;5067234;28;20036;-74
2023/01/11 11:45:57;;;;;;;4.25;2.40;;;;;;;9.81;100.00;100267.34;5043066;28;20090;-73
2023/01/11 11:49:22;;;;;;;3.95;2.58;;;;;;;9.83;100.00;100283.81;5055404;28;20193;-73
2023/01/11 11:52:33;;;;;;;1.45;0.50;;;;;;;9.84;97.53;100282.03;5055563;28;20132;-74
2023/01/11 11:55:39;;;;;;;4.43;1.80;;;;;;;9.98;98.26;100284.72;5067908;28;20109;-74
2023/01/11 11:58:46;;;;;;;4.35;1.25;;;;;;;10.00;93.50;100281.13;5068011;28;20051;-74
2023/01/11 12:01:58;;;;;;;3.30;1.00;;;;;;;10.02;92.33;100283.66;5063096;28;20524;-74
2023/01/11 12:05:08;;;;;;;3.15;0.50;;;;;;;10.05;92.13;100285.25;5068100;28;20051;-74
2023/01/11 12:08:16;;;;;;;1.95;0.60;;;;;;;10.04;92.37;100281.78;5060477;28;20517;-74
2023/01/11 12:11:41;;;;;;;4.97;1.65;;;;;;;10.04;91.82;100275.72;5060238;28;20043;-74
2023/01/11 12:15:04;;;;;;;4.05;1.05;;;;;;;10.02;91.24;100278.44;5063262;28;20109;-73
2023/01/11 12:18:27;;;;;;;4.40;0.70;;;;;;;10.07;89.86;100280.78;5067211;28;20063;-74
2023/01/11 12:21:31;;;;;;;12.98;8.50;;;;;;;10.10;91.56;100291.06;5067900;28;20125;-75
2023/01/11 12:29:01;;;;;;;3.63;1.80;;;;;;;10.58;90.48;100279.72;5044231;28;19923;-72
2023/01/11 12:32:34;;;;;;;4.03;2.63;;;;;;;10.64;90.10;100291.59;5066935;28;20473;-77
2023/01/11 12:36:09;;;;;;;5.75;2.63;;;;;;;10.28;88.04;100302.34;5061727;28;20185;-75
2023/01/11 12:39:59;;;;;;;5.43;1.20;;;;;;;10.62;86.79;100290.84;5065737;28;20178;-73
2023/01/11 12:43:49;;;;;;;3.42;0.77;;;;;;;10.30;87.72;100290.00;5069877;28;20036;-75
2023/01/11 12:47:51;;;;;;;4.57;1.30;;;;;;;10.25;87.91;100290.25;5071701;28;20077;-75
2023/01/11 12:51:36;;;;;;;9.80;2.22;;;;;;;10.21;85.29;100299.16;5071625;28;20097;-77
2023/01/11 12:55:00;;;;;;;7.07;2.25;;;;;;;10.22;86.96;100312.16;5071915;28;20048;-72
2023/01/11 12:58:13;;;;;;;5.45;1.58;;;;;;;10.21;86.76;100314.84;5071864;28;20044;-77
2023/01/11 13:01:54;;;;;;;7.43;3.05;;;;;;;10.06;82.87;100310.47;5057891;28;20042;-78
2023/01/11 13:05:31;;;;;;;6.45;2.67;;;;;;;10.15;82.93;100310.81;5051886;28;20103;-76
2023/01/11 13:09:01;;;;;;;10.05;2.42;;;;;;;9.97;81.18;100325.69;5051539;28;20044;-79
2023/01/11 13:12:27;;;;;;;7.18;2.28;;;;;;;10.00;81.70;100327.28;5051544;28;20067;-75
2023/01/11 13:15:34;;;;;;;6.05;1.33;;;;;;;9.97;79.64;100325.69;5051395;28;20095;-78
2023/01/11 13:18:57;;;;;;;8.60;2.20;;;;;;;9.92;79.32;100319.00;5039089;28;20536;-80
2023/01/11 13:22:26;;;;;;;10.32;2.47;;;;;;;9.96;79.06;100320.56;5051740;28;20057;-78
2023/01/11 13:25:49;;;;;;;7.18;1.92;;;;;;;9.75;81.01;100325.13;5041132;28;20043;-78
2023/01/11 13:29:29;;;;;;;8.38;2.35;;;;;;;9.82;80.33;100329.09;5051177;28;20063;-76
2023/01/11 13:32:38;;;;;;;8.63;3.05;;;;;;;9.83;80.28;100332.53;5051475;28;20040;-76
2023/01/11 13:36:05;;;;;;;7.03;1.60;;;;;;;9.85;79.53;100338.53;5051296;28;20167;-77
2023/01/11 13:39:35;;;;;;;10.32;2.60;;;;;;;9.95;82.90;100347.56;5052481;28;20048;-74
2023/01/11 13:43:05;;;;;;;11.05;3.03;;;;;;;9.70;82.42;100354.09;5071772;28;20048;-74
2023/01/11 13:46:33;;;;;;;9.48;3.75;;;;;;;9.79;80.69;100363.19;5071366;28;20052;-75
2023/01/11 13:49:59;;;;;;;8.88;1.98;;;;;;;9.75;82.51;100359.06;5071301;28;20442;-75
2023/01/11 13:53:34;;;;;;;6.22;1.83;;;;;;;9.73;79.83;100350.47;5059190;28;20082;-75
2023/01/11 13:56:41;;;;;;;11.30;3.63;;;;;;;9.81;81.35;100356.13;5058366;28;20067;-76
2023/01/11 13:59:51;;;;;;;13.57;3.75;;;;;;;9.69;83.76;100369.81;5030765;28;20047;-77
2023/01/11 14:03:13;;;;;;;8.73;1.83;;;;;;;9.59;86.06;100373.81;5060380;28;20044;-76
2023/01/11 14:06:21;;;;;;;14.80;6.03;;;;;;;9.72;85.05;100382.72;5049894;28;20110;-75
2023/01/11 14:09:33;;;;;;;11.73;2.65;;;;;;;9.83;85.98;100388.25;5051002;28;20044;-75
2023/01/11 14:12:45;;;;;;;9.57;4.22;;;;;;;9.70;86.04;100408.06;5053779;28;20530;-75
2023/01/11 14:15:58;;;;;;;10.60;3.65;;;;;;;9.51;84.76;100414.22;5054776;28;20453;-76
2023/01/11 14:19:27;;;;;;;;;;;;;;;9.51;77.77;100424.66;5054930;28;20095;-77
2023/01/11 14:23:02;;;;;;;11.65;3.47;;;;;;;9.48;77.73;100432.63;5055095;28;19967;-75
2023/01/11 14:26:59;;;;;;;14.13;2.75;;;;;;;9.51;74.36;100440.31;5054832;28;20079;-77
2023/01/11 14:30:35;;;;;;;13.23;2.35;;;;;;;9.58;75.10;100447.84;5038848;28;20422;-69
2023/01/11 14:34:11;;;;;;;13.15;3.50;;;;;;;10.44;72.33;100453.00;5034671;28;20482;-71
2023/01/11 14:38:09;;;;;;;14.65;3.55;;;;;;;9.88;68.08;100474.19;5054768;28;20044;-75
2023/01/11 14:41:50;;;;;;;13.07;4.30;;;;;;;10.43;71.50;100461.78;5073722;28;20055;-68
2023/01/11 14:45:12;;;;;;;13.73;2.88;;;;;;;9.67;69.52;100452.63;5074151;28;20059;-78
2023/01/11 14:48:32;;;;;;;18.52;6.45;;;;;;;9.55;70.05;100467.94;5074432;28;20425;-76
2023/01/11 14:52:02;;;;;;;15.27;4.13;;;;;;;9.51;69.75;100476.03;5039746;28;20542;-77
2023/01/11 14:55:25;;;;;;;11.30;2.63;;;;;;;9.48;70.40;100477.00;5051474;28;20545;-74
2023/01/11 14:58:59;;;;;;;13.75;3.08;;;;;;;9.46;68.92;100476.22;5052240;28;20071;-75
2023/01/11 15:02:28;;;;;;;15.68;3.45;;;;;;;9.42;68.40;100474.69;5051370;28;20052;-76
2023/01/11 15:05:39;;;;;;;12.20;4.05;;;;;;;9.37;68.72;100479.28;5067520;28;20071;-76
2023/01/11 15:08:50;;;;;;;14.77;5.13;;;;;;;9.42;68.72;100482.53;5072774;28;20047;-76
2023/01/11 15:12:11;;;;;;;32.50;14.20;;;;;;;9.43;69.04;100499.03;5074279;28;20040;-76
2023/01/11 15:15:20;;;;;;;29.50;10.60;;;;;;;9.39;70.28;100493.09;5073837;28;20052;-75
2023/01/11 15:18:26;;;;;;;40.17;9.38;;;;;;;9.22;71.64;100493.03;5061616;28;20148;-75
2023/01/11 15:21:39;;;;;;;104.03;17.45;;;;;;;9.19;73.68;100501.88;5074167;28;20528;-77
2023/01/11 15:24:55;;;;;;;16.42;5.85;;;;;;;9.15;73.17;100494.25;5060939;28;20093;-76
2023/01/11 15:28:03;;;;;;;15.90;5.30;;;;;;;9.08;73.22;100499.75;5067684;28;20075;-76
2023/01/11 15:31:44;;;;;;;16.55;5.60;;;;;;;8.97;73.60;100515.06;5053942;28;20056;-75
2023/01/11 15:35:14;;;;;;;24.63;8.57;;;;;;;8.98;73.29;100521.97;5055553;28;20083;-76
2023/01/11 15:38:30;;;;;;;19.48;5.18;;;;;;;8.96;72.64;100534.22;5054054;28;20094;-78
2023/01/11 15:42:18;;;;;;;16.70;3.83;;;;;;;9.06;71.71;100532.03;5028163;28;20055;-77
2023/01/11 15:50:04;;;;;;;13.45;4.28;;;;;;;9.01;72.33;100531.41;5033438;28;20163;-77
2023/01/11 15:53:23;;;;;;;47.63;26.10;;;;;;;8.91;72.61;100538.81;5033526;28;20457;-77
2023/01/11 15:57:02;;;;;;;30.15;21.20;;;;;;;8.89;72.76;100553.66;5043724;28;20048;-76
2023/01/11 16:00:44;;;;;;;14.90;6.53;;;;;;;8.75;74.61;100548.25;5053154;28;20047;-74
2023/01/11 16:04:18;;;;;;;14.10;4.28;;;;;;;8.69;76.16;100538.94;5052458;28;20129;-74
2023/01/11 16:07:46;;;;;;;16.17;8.07;;;;;;;8.62;77.59;100542.72;5052734;28;20437;-75
2023/01/11 16:11:24;;;;;;;25.30;10.60;;;;;;;8.49;76.23;100550.22;5029160;28;20191;-75
2023/01/11 16:14:58;;;;;;;16.98;6.63;;;;;;;8.35;75.78;100549.94;5033096;28;20052;-74
2023/01/11 16:18:11;;;;;;;10.43;4.82;;;;;;;8.48;76.13;100553.72;5032882;28;20064;-74
2023/01/11 16:21:27;;;;;;;12.82;3.22;;;;;;;8.58;74.07;100552.44;5033121;28;20095;-74
2023/01/11 16:24:42;;;;;;;14.75;3.83;;;;;;;8.78;75.02;100553.31;5032780;28;20131;-74
2023/01/11 16:27:57;;;;;;;13.80;3.10;;;;;;;8.76;74.04;100557.75;5032956;28;20082;-78
2023/01/11 16:31:06;;;;;;;10.75;2.55;;;;;;;8.70;74.83;100558.00;5032164;28;20131;-76
2023/01/11 16:34:18;;;;;;;39.65;32.60;;;;;;;8.52;74.66;100573.56;5031057;28;20056;-73